Time;durP1;ratioP1;P1;durP2;ratioP2;P2;SDS_P1;SDS_P2;PMS_P1;PMS_P2;Temp;Humidity;BMP_temperature;BMP_pressure;BME280_temperature;BME280_humidity;BME280_pressure;Samples;Min_cycle;Max_cycle;Signal;HPM_P1;HPM_P2
2023/06/11 07:20:52;;;;;;;4.25;2.35;;;;;;;21.79;77.38;96227.00;5073222;27;21090;-68
2023/06/11 07:23:19;;;;;;;18.13;2.70;;;;;;;21.83;76.40;96233.50;5073035;28;20664;-67
2023/06/11 07:25:48;;;;;;;3.88;2.22;;;;;;;21.98;75.19;96231.03;5072901;28;20207;-68
2023/06/11 07:28:15;;;;;;;2.95;1.80;;;;;;;22.08;74.13;96224.75;5072404;28;20191;-67
2023/06/11 07:30:42;;;;;;;2.85;1.90;;;;;;;22.04;72.27;96224.69;5072852;28;20243;-65
2023/06/11 07:33:08;;;;;;;3.15;2.00;;;;;;;21.89;71.63;96229.84;5071853;28;20208;-67
2023/06/11 07:35:35;;;;;;;5.38;2.55;;;;;;;22.03;70.47;96223.06;5070907;28;20200;-67
2023/06/11 07:38:03;;;;;;;2.45;1.75;;;;;;;22.13;72.04;96224.84;5070711;28;20262;-67
2023/06/11 07:40:29;;;;;;;2.60;1.65;;;;;;;22.40;69.97;96224.91;5071720;28;20219;-65
2023/06/11 07:42:56;;;;;;;4.00;1.80;;;;;;;22.40;67.14;96222.22;5072248;28;20516;-67
2023/06/11 07:45:22;;;;;;;2.95;2.00;;;;;;;22.48;67.39;96227.97;5072547;28;20199;-67
2023/06/11 07:47:49;;;;;;;3.38;1.85;;;;;;;22.67;65.86;96231.97;5072353;28;20214;-67
2023/06/11 07:50:15;;;;;;;2.33;1.65;;;;;;;22.58;66.23;96233.47;5072098;28;20216;-67
2023/06/11 07:52:42;;;;;;;3.17;1.58;;;;;;;22.55;68.13;96223.22;5072701;28;20567;-67
2023/06/11 07:55:10;;;;;;;2.67;1.48;;;;;;;22.81;66.93;96217.06;5070961;28;21034;-65
2023/06/11 07:57:36;;;;;;;2.83;1.77;;;;;;;22.64;64.89;96216.34;5067500;28;20322;-66
2023/06/11 08:00:10;;;;;;;7.03;1.45;;;;;;;22.68;63.78;96220.13;5071308;28;20233;-67
2023/06/11 08:02:36;;;;;;;3.83;1.92;;;;;;;22.68;64.50;96220.13;5071713;28;20204;-66
2023/06/11 08:05:03;;;;;;;3.05;1.98;;;;;;;22.58;63.81;96213.84;5071827;28;21097;-65
2023/06/11 08:07:29;;;;;;;3.90;1.60;;;;;;;22.71;65.10;96208.91;5072139;28;20215;-68
2023/06/11 08:09:56;;;;;;;7.60;1.60;;;;;;;22.82;63.30;96216.00;5068404;28;20231;-67
2023/06/11 08:12:25;;;;;;;2.97;1.60;;;;;;;22.90;63.59;96212.88;5070346;28;20591;-65
2023/06/11 08:14:51;;;;;;;5.78;1.80;;;;;;;23.01;64.65;96211.94;5070216;28;20204;-65
2023/06/11 08:17:18;;;;;;;2.53;1.70;;;;;;;23.19;64.04;96206.19;5069928;28;20211;-68
2023/06/11 08:19:44;;;;;;;2.85;1.30;;;;;;;23.30;62.65;96217.56;5069697;28;20236;-67
2023/06/11 08:22:11;;;;;;;2.33;1.52;;;;;;;23.46;62.30;96205.88;5070673;28;20298;-66
2023/06/11 08:24:37;;;;;;;2.33;1.70;;;;;;;23.52;60.63;96209.41;5070740;28;20208;-67
2023/06/11 08:27:04;;;;;;;2.38;1.63;;;;;;;23.54;61.58;96205.41;5069478;28;20207;-67
2023/06/11 08:29:32;;;;;;;3.33;1.65;;;;;;;23.67;59.92;96213.03;5070385;28;20196;-69
2023/06/11 08:31:59;;;;;;;3.03;1.80;;;;;;;23.65;62.42;96211.66;5057958;28;20200;-66
2023/06/11 08:34:25;;;;;;;2.83;1.65;;;;;;;23.81;60.35;96213.44;5057198;28;20200;-67
2023/06/11 08:36:52;;;;;;;2.35;1.60;;;;;;;24.18;59.56;96207.72;5056045;28;20208;-67
2023/06/11 08:39:18;;;;;;;2.65;1.58;;;;;;;23.99;59.30;96217.31;5056954;28;20216;-67
2023/06/11 08:41:45;;;;;;;1.88;1.38;;;;;;;24.13;60.21;96210.41;5056170;28;20211;-65
2023/06/11 08:44:11;;;;;;;2.17;1.58;;;;;;;24.23;58.87;96212.31;5057005;28;20209;-66
2023/06/11 08:46:40;;;;;;;3.97;2.00;;;;;;;24.08;57.99;96221.16;5056777;28;20200;-67
2023/06/11 08:49:07;;;;;;;1.77;1.20;;;;;;;24.04;59.99;96217.34;5056082;28;20217;-68
2023/06/11 08:51:36;;;;;;;2.78;1.70;;;;;;;24.06;63.06;96206.31;5055822;28;20629;-68
2023/06/11 08:54:04;;;;;;;1.70;1.38;;;;;;;24.19;63.35;96212.03;5056249;28;20220;-70
2023/06/11 08:56:31;;;;;;;2.78;1.40;;;;;;;24.26;60.45;96209.94;5056374;28;20201;-68
2023/06/11 08:59:00;;;;;;;2.28;1.42;;;;;;;24.33;60.28;96207.78;5054277;28;20566;-70
2023/06/11 09:01:26;;;;;;;2.42;1.63;;;;;;;24.24;59.28;96205.88;5054537;28;20217;-68
2023/06/11 09:03:54;;;;;;;2.13;1.40;;;;;;;24.34;57.54;96208.63;5056315;28;20882;-68
2023/06/11 09:06:21;;;;;;;1.95;1.42;;;;;;;24.49;59.29;96214.09;5056391;28;20715;-69
2023/06/11 09:08:57;;;;;;;7.85;1.65;;;;;;;24.58;57.10;96206.03;5054544;28;20196;-68
2023/06/11 09:11:23;;;;;;;2.22;1.70;;;;;;;23.95;56.39;96210.84;5056727;28;20227;-70
2023/06/11 09:13:50;;;;;;;2.55;1.75;;;;;;;24.27;59.11;96216.91;5056595;28;20551;-68
2023/06/11 09:16:16;;;;;;;3.78;1.50;;;;;;;24.61;59.05;96205.50;5056413;28;20207;-69
2023/06/11 09:18:43;;;;;;;2.08;1.73;;;;;;;24.48;57.27;96209.75;5056113;28;20220;-71
2023/06/11 09:21:12;;;;;;;2.97;1.73;;;;;;;24.92;57.38;96207.22;5054379;28;20225;-69
2023/06/11 09:23:39;;;;;;;2.13;1.50;;;;;;;24.56;56.51;96213.56;5054761;28;20556;-70
2023/06/11 09:26:06;;;;;;;2.67;1.60;;;;;;;24.70;57.17;96213.91;5055926;28;20283;-69
2023/06/11 09:28:34;;;;;;;2.47;1.40;;;;;;;24.83;56.47;96203.41;5056499;28;20200;-68
2023/06/11 09:31:01;;;;;;;4.25;1.85;;;;;;;24.82;60.26;96211.78;5056210;28;20228;-68
2023/06/11 09:33:29;;;;;;;3.13;2.10;;;;;;;24.88;60.51;96210.72;5055519;28;20201;-69
2023/06/11 09:35:55;;;;;;;2.63;1.90;;;;;;;24.23;58.96;96206.94;5056801;28;20216;-67
2023/06/11 09:38:24;;;;;;;4.10;2.20;;;;;;;24.01;58.06;96212.47;5055180;28;20197;-68
2023/06/11 09:40:52;;;;;;;2.60;1.73;;;;;;;24.27;59.64;96208.03;5054558;28;20263;-70
2023/06/11 09:43:20;;;;;;;3.38;1.92;;;;;;;24.29;57.60;96204.00;5054299;28;20200;-70
2023/06/11 09:45:52;;;;;;;2.33;1.75;;;;;;;24.28;58.60;96205.06;5054872;28;20197;-70
2023/06/11 09:48:19;;;;;;;2.47;1.60;;;;;;;24.27;59.34;96205.34;5055218;28;20203;-68
2023/06/11 09:50:48;;;;;;;2.72;1.70;;;;;;;24.51;57.41;96209.25;5056658;28;20224;-70
2023/06/11 09:53:15;;;;;;;2.20;1.60;;;;;;;24.99;55.81;96217.75;5056650;28;20212;-70
2023/06/11 09:55:43;;;;;;;3.05;2.05;;;;;;;24.65;54.59;96212.00;5056330;28;20200;-68
2023/06/11 09:58:12;;;;;;;2.28;1.58;;;;;;;25.01;54.81;96216.41;5054919;28;20200;-68
2023/06/11 10:00:38;;;;;;;2.00;1.50;;;;;;;25.36;52.19;96216.50;5055965;28;20224;-70
2023/06/11 10:03:05;;;;;;;2.28;1.65;;;;;;;25.37;53.19;96216.22;5054813;28;20803;-70
2023/06/11 10:05:35;;;;;;;1.77;1.35;;;;;;;25.58;55.06;96212.44;5057527;28;20254;-68
2023/06/11 10:08:05;;;;;;;2.67;1.77;;;;;;;25.77;53.81;96207.34;5055985;28;21071;-71
2023/06/11 10:10:36;;;;;;;2.45;1.60;;;;;;;24.66;52.14;96202.84;5056110;28;20309;-67
2023/06/11 10:13:04;;;;;;;2.75;1.70;;;;;;;24.42;52.98;96217.03;5056591;28;20209;-70
2023/06/11 10:15:33;;;;;;;7.97;3.28;;;;;;;25.04;55.01;96210.50;5055344;28;20196;-71
2023/06/11 10:18:00;;;;;;;9.60;4.07;;;;;;;25.54;51.94;96210.56;5054297;28;21291;-70
2023/06/11 10:20:29;;;;;;;2.03;1.13;;;;;;;25.64;54.96;96194.38;5056345;28;20322;-71
2023/06/11 10:23:06;;;;;;;4.65;2.92;;;;;;;26.15;53.58;96199.44;5055397;28;20197;-70
2023/06/11 10:25:34;;;;;;;4.85;2.88;;;;;;;26.49;51.66;96207.44;5055681;28;20207;-70
2023/06/11 10:28:00;;;;;;;3.88;2.10;;;;;;;26.57;47.56;96201.44;5055463;28;20258;-67
2023/06/11 10:30:28;;;;;;;3.17;1.80;;;;;;;26.29;47.15;96208.56;5054129;28;20216;-67
2023/06/11 10:32:56;;;;;;;4.18;1.88;;;;;;;25.92;49.19;96218.94;5055923;28;20216;-70
2023/06/11 10:35:24;;;;;;;2.28;1.27;;;;;;;25.62;47.87;96224.31;5056159;28;20208;-68
2023/06/11 10:38:01;;;;;;;3.15;1.92;;;;;;;25.70;48.73;96215.72;5054220;28;20212;-68
2023/06/11 10:40:32;;;;;;;5.93;1.52;;;;;;;25.53;47.62;96219.72;5055466;28;20293;-67
2023/06/11 10:42:58;;;;;;;3.05;1.50;;;;;;;25.17;47.94;96220.78;5056229;28;20236;-68
2023/06/11 10:45:36;;;;;;;1.92;1.40;;;;;;;25.58;47.82;96215.13;5055417;28;20589;-70
2023/06/11 10:48:03;;;;;;;3.22;1.55;;;;;;;26.02;48.55;96219.72;5055252;28;20258;-70
2023/06/11 10:50:31;;;;;;;2.15;1.52;;;;;;;26.21;46.70;96223.47;5054860;28;20227;-68
2023/06/11 10:52:59;;;;;;;2.15;1.40;;;;;;;26.20;46.06;96211.03;5056711;28;20215;-68
2023/06/11 10:55:30;;;;;;;3.10;1.60;;;;;;;26.15;47.23;96205.63;5054830;28;20207;-68
2023/06/11 10:57:57;;;;;;;2.83;1.60;;;;;;;25.87;49.09;96208.91;5054991;28;20206;-68
2023/06/11 11:00:28;;;;;;;2.15;1.40;;;;;;;25.97;48.09;96217.00;5055562;28;20220;-70
2023/06/11 11:02:57;;;;;;;4.70;1.45;;;;;;;26.15;46.23;96208.34;5055799;28;20205;-68
2023/06/11 11:05:25;;;;;;;3.05;1.75;;;;;;;26.19;44.10;96205.91;5055443;28;20223;-70
2023/06/11 11:07:53;;;;;;;1.70;1.20;;;;;;;26.31;45.79;96207.22;5054530;28;20208;-69
2023/06/11 11:10:24;;;;;;;2.63;1.60;;;;;;;26.53;43.47;96205.00;5055514;28;20242;-68
2023/06/11 11:12:51;;;;;;;1.30;1.00;;;;;;;26.31;44.95;96211.78;5055520;28;20622;-71
2023/06/11 11:15:17;;;;;;;2.92;1.90;;;;;;;26.70;44.99;96200.84;5055521;28;20200;-69
2023/06/11 11:17:45;;;;;;;2.95;1.67;;;;;;;26.84;44.13;96211.88;5054937;28;20196;-70
2023/06/11 11:20:17;;;;;;;3.00;1.73;;;;;;;26.24;45.29;96206.69;5055138;28;20250;-70
2023/06/11 11:22:48;;;;;;;1.75;1.33;;;;;;;26.31;45.76;96204.50;5055447;28;20320;-69
2023/06/11 11:25:15;;;;;;;2.78;1.42;;;;;;;26.10;44.36;96200.25;5055227;28;20246;-68
2023/06/11 11:27:43;;;;;;;1.58;1.27;;;;;;;25.83;45.04;96212.47;5054768;28;20281;-68
2023/06/11 11:30:10;;;;;;;2.58;1.55;;;;;;;26.33;44.12;96199.63;5055613;28;20216;-68
2023/06/11 11:32:37;;;;;;;3.03;1.70;;;;;;;26.79;44.01;96201.09;5055644;28;20895;-69
2023/06/11 11:35:05;;;;;;;2.60;1.67;;;;;;;26.76;42.64;96198.94;5055569;28;20223;-68
2023/06/11 11:37:34;;;;;;;3.75;1.52;;;;;;;26.63;44.92;96203.06;5054569;28;20644;-70
2023/06/11 11:40:01;;;;;;;1.77;1.38;;;;;;;26.44;44.41;96193.16;5055178;28;20589;-69
2023/06/11 11:42:28;;;;;;;2.58;1.52;;;;;;;26.32;42.77;96195.31;5054701;28;20204;-70
2023/06/11 11:44:55;;;;;;;3.15;1.40;;;;;;;26.50;46.84;96189.31;5055590;28;20215;-68
2023/06/11 11:47:22;;;;;;;2.25;1.35;;;;;;;26.21;44.05;96190.19;5054776;28;20232;-69
2023/06/11 11:49:55;;;;;;;2.15;1.20;;;;;;;26.23;45.37;96188.84;5054806;28;20228;-68
2023/06/11 11:52:22;;;;;;;3.45;1.58;;;;;;;26.42;44.21;96184.50;5055245;28;20282;-68
2023/06/11 11:54:50;;;;;;;1.45;1.13;;;;;;;26.56;42.06;96183.59;5055324;28;20200;-70
2023/06/11 11:57:20;;;;;;;1.55;1.27;;;;;;;26.71;41.98;96180.03;5054340;28;20201;-71
2023/06/11 11:59:47;;;;;;;3.03;1.80;;;;;;;25.93;43.48;96180.84;5054407;28;20279;-68
2023/06/11 12:02:13;;;;;;;3.03;1.52;;;;;;;25.30;44.10;96188.69;5055326;28;20228;-68
2023/06/11 12:04:42;;;;;;;2.13;1.42;;;;;;;25.15;44.66;96181.66;5055090;28;20258;-67
2023/06/11 12:07:12;;;;;;;2.78;1.40;;;;;;;25.86;44.00;96176.81;5057331;28;20206;-69
2023/06/11 12:09:40;;;;;;;1.48;1.15;;;;;;;26.27;43.77;96168.28;5059155;28;20216;-69
2023/06/11 12:12:09;;;;;;;1.83;1.30;;;;;;;26.92;43.65;96173.41;5058754;28;20193;-70
2023/06/11 12:14:36;;;;;;;3.22;1.60;;;;;;;27.14;42.38;96175.47;5058448;28;20212;-68
2023/06/11 12:17:04;;;;;;;3.05;1.25;;;;;;;27.08;39.45;96169.56;5058524;28;21540;-67
2023/06/11 12:19:32;;;;;;;2.00;0.98;;;;;;;26.87;38.77;96171.56;5057931;28;20219;-68
2023/06/11 12:21:59;;;;;;;2.30;1.50;;;;;;;27.00;40.25;96170.16;5057789;28;20712;-68
2023/06/11 12:24:25;;;;;;;2.63;1.38;;;;;;;27.01;40.02;96169.06;5058573;28;20201;-70
2023/06/11 12:26:52;;;;;;;2.10;1.30;;;;;;;26.47;40.77;96170.97;5058574;28;20212;-67
2023/06/11 12:29:20;;;;;;;1.55;1.27;;;;;;;26.96;40.20;96172.63;5057704;28;20196;-67
2023/06/11 12:31:47;;;;;;;1.75;1.35;;;;;;;27.52;39.92;96161.09;5058326;28;20196;-69
2023/06/11 12:34:15;;;;;;;1.73;1.15;;;;;;;27.75;41.93;96168.50;5059056;28;20208;-68
2023/06/11 12:36:42;;;;;;;1.80;1.45;;;;;;;27.87;38.69;96155.38;5058592;28;20668;-68
2023/06/11 12:39:09;;;;;;;2.35;1.40;;;;;;;28.30;39.06;96160.63;5057485;28;20218;-68
2023/06/11 12:41:36;;;;;;;2.42;1.58;;;;;;;28.06;36.85;96161.69;5057696;28;20232;-67
2023/06/11 12:44:03;;;;;;;4.40;1.77;;;;;;;28.83;35.03;96157.53;5057121;28;20681;-68
2023/06/11 12:46:31;;;;;;;1.65;1.13;;;;;;;28.06;35.55;96159.75;5057625;28;20224;-68
2023/06/11 12:48:58;;;;;;;1.25;1.00;;;;;;;28.19;38.30;96159.09;5057784;28;20240;-67
2023/06/11 12:51:25;;;;;;;2.22;1.23;;;;;;;28.33;40.86;96151.91;5058848;28;20220;-68
2023/06/11 12:53:52;;;;;;;4.57;1.65;;;;;;;28.51;44.50;96160.09;5057016;28;20209;-68
2023/06/11 12:56:22;;;;;;;1.83;1.20;;;;;;;28.18;38.53;96143.13;5058209;28;20204;-71
2023/06/11 12:58:49;;;;;;;2.17;1.55;;;;;;;27.08;41.36;96154.94;5056528;28;20210;-69
2023/06/11 13:01:15;;;;;;;1.85;1.08;;;;;;;26.46;41.75;96153.13;5057868;28;20220;-68
2023/06/11 13:03:43;;;;;;;1.98;1.33;;;;;;;27.37;40.65;96157.72;5057578;28;20201;-69
2023/06/11 13:06:10;;;;;;;2.42;1.50;;;;;;;27.90;41.88;96149.38;5055064;28;20207;-69
2023/06/11 13:08:36;;;;;;;2.40;1.60;;;;;;;27.41;41.20;96159.56;5056112;28;21162;-70
2023/06/11 13:11:03;;;;;;;2.72;1.70;;;;;;;26.51;40.38;96158.50;5056527;28;20231;-68
2023/06/11 13:13:30;;;;;;;2.58;1.40;;;;;;;26.15;40.31;96148.91;5057234;28;20203;-70
2023/06/11 13:15:56;;;;;;;2.38;1.60;;;;;;;26.96;39.42;96155.56;5056567;28;20774;-69
2023/06/11 13:18:22;;;;;;;4.18;1.40;;;;;;;26.83;37.76;96156.16;5056437;28;20196;-69
2023/06/11 13:20:50;;;;;;;1.88;1.25;;;;;;;27.25;37.70;96149.97;5058150;28;20235;-68
2023/06/11 13:23:19;;;;;;;2.17;1.10;;;;;;;27.94;36.64;96151.25;5057437;28;20205;-68
2023/06/11 13:25:45;;;;;;;2.50;1.33;;;;;;;28.03;37.33;96145.97;5056752;28;20641;-69
2023/06/11 13:28:12;;;;;;;3.60;1.45;;;;;;;27.89;37.06;96139.63;5055857;28;20197;-67
2023/06/11 13:30:38;;;;;;;3.78;1.20;;;;;;;27.86;35.09;96134.78;5056629;28;20223;-67
2023/06/11 13:33:05;;;;;;;1.10;1.00;;;;;;;27.88;35.20;96143.44;5056213;28;20201;-68
2023/06/11 13:35:31;;;;;;;1.88;1.45;;;;;;;27.93;35.61;96140.69;5056953;28;20201;-69
2023/06/11 13:37:59;;;;;;;2.10;1.02;;;;;;;28.73;37.27;96132.38;5056390;28;20291;-71
2023/06/11 13:40:26;;;;;;;2.50;1.50;;;;;;;28.45;35.78;96126.00;5054751;28;20236;-69
2023/06/11 13:42:52;;;;;;;1.98;1.00;;;;;;;28.38;37.26;96128.22;5055347;28;20223;-67
2023/06/11 13:45:19;;;;;;;4.03;1.60;;;;;;;27.99;35.10;96126.81;5056942;28;20546;-69
2023/06/11 13:47:45;;;;;;;2.67;1.67;;;;;;;28.68;35.06;96121.59;5056159;28;20226;-68
2023/06/11 13:50:11;;;;;;;1.33;0.93;;;;;;;28.41;35.65;96122.25;5055014;28;20271;-70
2023/06/11 13:52:39;;;;;;;1.90;1.30;;;;;;;28.66;35.55;96124.59;5054973;28;20204;-69
2023/06/11 13:55:09;;;;;;;1.48;1.25;;;;;;;28.29;33.96;96117.53;5056649;28;20204;-69
2023/06/11 13:57:36;;;;;;;2.13;1.10;;;;;;;27.71;35.55;96115.97;5055200;28;20558;-68
2023/06/11 14:00:04;;;;;;;2.63;1.73;;;;;;;27.88;36.61;96116.38;5056357;28;20742;-70
2023/06/11 14:02:30;;;;;;;3.70;1.85;;;;;;;27.59;37.06;96118.28;5055737;28;20234;-68
2023/06/11 14:04:57;;;;;;;1.90;1.15;;;;;;;27.20;36.16;96106.69;5056535;28;20208;-68
2023/06/11 14:07:23;;;;;;;2.42;1.52;;;;;;;28.10;39.67;96113.94;5055020;28;20291;-68
2023/06/11 14:09:50;;;;;;;1.70;1.02;;;;;;;28.06;36.47;96108.28;5056328;28;20235;-68
2023/06/11 14:12:18;;;;;;;2.65;1.20;;;;;;;28.73;35.83;96105.25;5056247;28;20311;-69
2023/06/11 14:14:44;;;;;;;1.02;0.93;;;;;;;28.47;35.90;96106.72;5056175;28;20200;-69
2023/06/11 14:17:11;;;;;;;1.90;1.38;;;;;;;28.33;36.92;96111.22;5056096;28;20204;-67
2023/06/11 14:19:37;;;;;;;1.48;0.85;;;;;;;27.73;34.69;96111.09;5054337;28;21266;-69
2023/06/11 14:22:04;;;;;;;1.98;1.30;;;;;;;28.10;33.76;96103.09;5056360;28;20580;-69
2023/06/11 14:24:30;;;;;;;1.75;0.80;;;;;;;27.95;33.19;96095.97;5056499;28;20204;-68
2023/06/11 14:26:57;;;;;;;2.47;1.38;;;;;;;28.36;33.90;96094.41;5055258;28;20211;-68
2023/06/11 14:29:25;;;;;;;2.42;1.08;;;;;;;29.22;33.17;96087.44;5054761;28;21167;-66
2023/06/11 14:31:59;;;;;;;1.98;1.30;;;;;;;29.84;35.28;96088.50;5056568;28;20235;-66
2023/06/11 14:34:25;;;;;;;1.40;1.13;;;;;;;28.90;31.66;96095.53;5056906;28;20201;-67
2023/06/11 14:36:52;;;;;;;4.38;1.20;;;;;;;28.57;31.67;96096.53;5055981;28;20196;-69
2023/06/11 14:39:18;;;;;;;1.65;1.15;;;;;;;27.96;31.71;96091.34;5053191;28;20211;-68
2023/06/11 14:41:45;;;;;;;1.63;1.33;;;;;;;28.98;31.68;96092.16;5054460;28;20520;-68
2023/06/11 14:44:13;;;;;;;1.73;1.10;;;;;;;29.19;33.05;96091.53;5054423;28;20212;-70
2023/06/11 14:46:40;;;;;;;1.88;1.23;;;;;;;28.54;31.18;96089.00;5055188;28;20239;-68
2023/06/11 14:49:07;;;;;;;1.42;1.05;;;;;;;28.44;30.61;96083.69;5054918;28;20201;-68
2023/06/11 14:51:33;;;;;;;1.27;0.90;;;;;;;28.10;30.55;96078.72;5054356;28;20548;-69
2023/06/11 14:54:00;;;;;;;1.10;0.95;;;;;;;28.19;31.04;96079.72;5054844;28;20200;-70
2023/06/11 14:56:27;;;;;;;3.80;1.58;;;;;;;28.07;32.94;96082.00;5055511;28;20207;-68
2023/06/11 14:58:53;;;;;;;8.77;1.27;;;;;;;28.65;35.03;96079.59;5054113;28;20204;-69
2023/06/11 15:01:19;;;;;;;1.65;1.02;;;;;;;28.60;32.57;96079.69;5054006;28;20882;-71
2023/06/11 15:03:48;;;;;;;1.38;1.08;;;;;;;29.46;32.19;96074.56;5054980;28;20211;-69
2023/06/11 15:06:14;;;;;;;1.90;1.17;;;;;;;29.78;32.46;96059.81;5054872;28;20201;-70
2023/06/11 15:08:41;;;;;;;4.40;1.40;;;;;;;29.54;33.08;96077.38;5054843;28;20555;-68
2023/06/11 15:11:07;;;;;;;1.60;1.10;;;;;;;29.35;33.27;96073.13;5055218;28;20629;-69
2023/06/11 15:13:34;;;;;;;2.03;1.30;;;;;;;28.51;32.52;96077.91;5055400;28;20208;-67
2023/06/11 15:16:01;;;;;;;2.22;1.30;;;;;;;28.72;33.26;96066.50;5055095;28;20212;-69
2023/06/11 15:18:27;;;;;;;1.50;1.02;;;;;;;29.10;33.95;96068.91;5054134;28;20434;-68
2023/06/11 15:20:55;;;;;;;1.65;1.17;;;;;;;29.27;35.50;96065.63;5054684;28;20224;-69
2023/06/11 15:23:22;;;;;;;1.60;1.00;;;;;;;29.06;32.88;96059.75;5054615;28;20227;-68
2023/06/11 15:25:49;;;;;;;2.53;1.17;;;;;;;29.16;32.80;96058.75;5054756;28;20200;-71
2023/06/11 15:28:15;;;;;;;5.65;1.42;;;;;;;28.71;33.03;96064.06;5054784;28;20277;-71
2023/06/11 15:30:43;;;;;;;1.23;1.00;;;;;;;29.81;35.59;96055.69;5054787;28;20220;-68
2023/06/11 15:33:10;;;;;;;1.73;1.17;;;;;;;30.04;33.98;96055.53;5054869;28;20207;-68
2023/06/11 15:35:36;;;;;;;2.25;1.10;;;;;;;29.67;33.36;96055.69;5055662;28;20604;-69
2023/06/11 15:38:04;;;;;;;3.28;1.60;;;;;;;29.37;34.35;96057.34;5054088;28;20905;-68
2023/06/11 15:40:32;;;;;;;1.55;1.25;;;;;;;28.81;34.65;96058.53;5054994;28;20682;-70
2023/06/11 15:42:58;;;;;;;4.50;1.48;;;;;;;29.58;36.62;96049.34;5057462;28;20228;-68
2023/06/11 15:45:25;;;;;;;1.65;1.30;;;;;;;28.65;35.61;96060.63;5059814;28;20200;-72
2023/06/11 15:47:52;;;;;;;2.42;1.27;;;;;;;27.31;36.90;96056.00;5057408;28;20208;-70
2023/06/11 15:50:18;;;;;;;2.03;1.23;;;;;;;28.24;36.00;96060.69;5056788;28;20247;-68
2023/06/11 15:52:47;;;;;;;1.70;1.10;;;;;;;28.12;34.71;96049.41;5058888;28;20200;-69
2023/06/11 15:55:15;;;;;;;2.35;1.75;;;;;;;29.63;34.89;96049.25;5059676;28;20207;-68
2023/06/11 15:57:43;;;;;;;2.00;1.23;;;;;;;29.81;33.97;96048.34;5058775;28;20204;-69
2023/06/11 16:00:10;;;;;;;2.50;1.50;;;;;;;30.43;32.84;96047.66;5058139;28;20224;-68
2023/06/11 16:02:37;;;;;;;2.40;1.38;;;;;;;29.86;33.63;96048.28;5058605;28;20216;-71
2023/06/11 16:05:04;;;;;;;2.20;1.30;;;;;;;29.27;33.22;96046.63;5058594;28;20201;-68
2023/06/11 16:07:30;;;;;;;1.27;1.15;;;;;;;28.56;32.92;96054.22;5058545;28;20216;-68
2023/06/11 16:09:57;;;;;;;1.65;1.15;;;;;;;28.67;33.40;96060.34;5057114;28;20224;-68
2023/06/11 16:12:25;;;;;;;2.08;1.20;;;;;;;29.12;32.30;96057.75;5057904;28;20196;-70
2023/06/11 16:14:51;;;;;;;2.15;1.40;;;;;;;29.53;32.16;96056.75;5058587;28;20203;-68
2023/06/11 16:17:19;;;;;;;2.85;1.70;;;;;;;30.27;30.49;96052.59;5056753;28;20200;-71
2023/06/11 16:19:46;;;;;;;1.98;1.20;;;;;;;31.53;31.23;96057.53;5057827;28;20260;-68
2023/06/11 16:22:12;;;;;;;2.35;1.58;;;;;;;31.31;29.32;96054.81;5058841;28;20220;-68
2023/06/11 16:24:39;;;;;;;1.90;1.40;;;;;;;31.63;28.98;96063.53;5057894;28;20208;-68
2023/06/11 16:27:06;;;;;;;2.58;1.00;;;;;;;31.04;29.76;96065.81;5058428;28;20211;-68
2023/06/11 16:29:33;;;;;;;2.25;1.60;;;;;;;30.98;29.92;96061.63;5057637;28;20208;-70
2023/06/11 16:32:00;;;;;;;2.25;1.40;;;;;;;31.04;29.25;96060.38;5058352;28;20223;-71
2023/06/11 16:34:26;;;;;;;1.98;1.17;;;;;;;31.78;30.49;96057.66;5058750;28;20204;-71
2023/06/11 16:36:53;;;;;;;2.75;1.40;;;;;;;31.25;30.16;96047.91;5058815;28;20211;-71
2023/06/11 16:39:19;;;;;;;2.78;1.40;;;;;;;30.66;30.12;96058.28;5058056;28;20204;-70
2023/06/11 16:41:46;;;;;;;4.47;2.28;;;;;;;30.65;30.77;96064.03;5058521;28;20235;-67
2023/06/11 16:44:12;;;;;;;2.63;1.52;;;;;;;30.89;30.28;96055.28;5058901;28;20232;-67
2023/06/11 16:46:40;;;;;;;5.28;2.25;;;;;;;31.86;29.18;96056.09;5058927;28;20212;-67
2023/06/11 16:49:06;;;;;;;2.90;1.63;;;;;;;31.19;29.86;96051.84;5057356;28;20205;-67
2023/06/11 16:51:33;;;;;;;1.38;1.13;;;;;;;32.55;28.56;96054.13;5057400;28;20224;-68
2023/06/11 16:53:59;;;;;;;1.75;1.30;;;;;;;33.22;27.46;96055.28;5058170;28;20201;-68
2023/06/11 16:56:26;;;;;;;2.45;1.55;;;;;;;32.25;28.36;96054.97;5058053;28;20203;-67
2023/06/11 16:58:54;;;;;;;2.42;1.98;;;;;;;32.02;28.18;96062.78;5057924;28;20208;-68
2023/06/11 17:01:21;;;;;;;2.63;1.40;;;;;;;31.59;28.95;96056.28;5059044;28;20220;-70
2023/06/11 17:03:48;;;;;;;1.92;1.35;;;;;;;31.06;29.82;96058.16;5058354;28;20237;-68
2023/06/11 17:06:15;;;;;;;2.60;1.60;;;;;;;30.37;30.67;96063.25;5057548;28;20203;-67
2023/06/11 17:08:41;;;;;;;1.67;1.25;;;;;;;30.50;31.06;96053.47;5057611;28;20701;-67
2023/06/11 17:11:08;;;;;;;1.55;1.17;;;;;;;31.33;29.54;96047.16;5058244;28;20771;-68
2023/06/11 17:13:35;;;;;;;1.92;1.45;;;;;;;30.94;30.05;96048.91;5057603;28;20250;-67
2023/06/11 17:16:01;;;;;;;4.55;2.25;;;;;;;30.53;30.64;96052.88;5058297;28;20318;-70
2023/06/11 17:18:28;;;;;;;1.33;1.20;;;;;;;30.10;30.17;96054.31;5057509;28;20827;-67
2023/06/11 17:20:57;;;;;;;1.65;1.10;;;;;;;30.98;29.28;96050.75;5057681;28;20224;-66
2023/06/11 17:23:23;;;;;;;3.20;1.40;;;;;;;30.82;29.37;96051.38;5057756;28;20597;-68
2023/06/11 17:25:50;;;;;;;1.65;1.20;;;;;;;31.27;28.69;96050.31;5057936;28;20562;-67
2023/06/11 17:28:16;;;;;;;2.08;1.52;;;;;;;30.74;29.88;96052.13;5057024;28;20574;-68
2023/06/11 17:30:43;;;;;;;2.10;1.25;;;;;;;31.75;29.41;96044.69;5057458;28;20228;-68
2023/06/11 17:33:09;;;;;;;2.10;1.23;;;;;;;31.97;28.76;96051.97;5057659;28;20204;-68
2023/06/11 17:35:35;;;;;;;3.58;1.50;;;;;;;31.46;29.17;96046.25;5057582;28;20249;-67
2023/06/11 17:38:03;;;;;;;1.70;1.08;;;;;;;31.97;29.56;96055.50;5055886;28;20214;-68
2023/06/11 17:40:30;;;;;;;2.03;1.35;;;;;;;31.49;28.99;96056.53;5056211;28;20596;-67
2023/06/11 17:42:57;;;;;;;1.38;1.10;;;;;;;30.36;30.89;96052.69;5056743;28;20231;-69
2023/06/11 17:45:25;;;;;;;2.28;1.20;;;;;;;30.92;29.88;96046.50;5055208;28;20204;-69
2023/06/11 17:47:52;;;;;;;3.22;1.48;;;;;;;29.87;30.36;96054.53;5055012;28;20289;-70
2023/06/11 17:50:18;;;;;;;2.35;1.63;;;;;;;29.61;31.65;96045.22;5055415;28;20219;-68
2023/06/11 17:52:45;;;;;;;6.47;1.30;;;;;;;28.92;31.31;96049.94;5053230;28;20196;-68
2023/06/11 17:55:14;;;;;;;1.45;1.10;;;;;;;28.79;32.96;96052.59;5056393;28;20208;-69
2023/06/11 17:57:40;;;;;;;1.92;1.33;;;;;;;28.47;33.64;96055.19;5056202;28;20714;-67
2023/06/11 18:00:08;;;;;;;3.13;1.60;;;;;;;29.16;32.67;96053.31;5056318;28;20281;-68
2023/06/11 18:02:35;;;;;;;1.80;1.30;;;;;;;29.26;32.44;96051.25;5056669;28;20228;-67
2023/06/11 18:05:01;;;;;;;2.47;1.15;;;;;;;29.00;32.83;96049.25;5055501;28;20208;-68
2023/06/11 18:07:27;;;;;;;2.00;1.63;;;;;;;28.67;33.11;96061.13;5056042;28;20567;-68
2023/06/11 18:09:54;;;;;;;2.10;1.13;;;;;;;28.79;34.23;96060.72;5057368;28;20864;-70
2023/06/11 18:12:22;;;;;;;1.73;1.58;;;;;;;29.38;33.02;96056.22;5057541;28;20196;-67
2023/06/11 18:14:48;;;;;;;2.35;1.30;;;;;;;29.92;34.41;96055.22;5056373;28;20196;-69
2023/06/11 18:17:15;;;;;;;2.33;1.65;;;;;;;29.86;34.22;96059.16;5056399;28;20200;-70
2023/06/11 18:19:42;;;;;;;2.75;1.20;;;;;;;28.84;35.44;96057.94;5056697;28;20286;-68
2023/06/11 18:22:09;;;;;;;2.17;1.48;;;;;;;26.95;37.65;96051.13;5056344;28;20201;-69
2023/06/11 18:24:35;;;;;;;2.60;1.65;;;;;;;26.70;37.92;96052.13;5056489;28;20876;-70
2023/06/11 18:27:02;;;;;;;1.90;1.42;;;;;;;25.79;39.33;96052.09;5057007;28;20233;-68
2023/06/11 18:29:29;;;;;;;2.20;1.42;;;;;;;25.38;42.54;96050.56;5055556;28;20200;-66
2023/06/11 18:31:57;;;;;;;2.38;1.52;;;;;;;25.07;42.70;96058.94;5055887;28;20212;-70
2023/06/11 18:34:24;;;;;;;3.90;1.80;;;;;;;24.62;41.46;96058.91;5056225;28;20200;-69
2023/06/11 18:36:50;;;;;;;2.00;1.52;;;;;;;24.63;41.46;96057.03;5055429;28;20207;-70
2023/06/11 18:39:17;;;;;;;1.98;1.30;;;;;;;24.57;41.04;96056.22;5053271;28;20201;-67
2023/06/11 18:41:43;;;;;;;2.55;1.40;;;;;;;24.37;42.32;96057.25;5049192;28;20213;-68
2023/06/11 18:44:10;;;;;;;2.03;1.38;;;;;;;24.20;42.51;96052.06;5052352;28;20298;-68
2023/06/11 18:46:38;;;;;;;2.25;1.52;;;;;;;24.13;43.21;96056.09;5052678;28;20200;-71
2023/06/11 18:49:05;;;;;;;1.83;1.48;;;;;;;23.90;43.31;96055.75;5051826;28;20201;-70
2023/06/11 18:51:32;;;;;;;1.95;1.35;;;;;;;24.02;44.39;96059.84;5052459;28;20220;-67
2023/06/11 18:54:01;;;;;;;2.25;1.45;;;;;;;23.71;44.52;96052.69;5052030;28;20207;-71